Time;durP1;ratioP1;P1;durP2;ratioP2;P2;SDS_P1;SDS_P2;PMS_P1;PMS_P2;Temp;Humidity;BMP_temperature;BMP_pressure;BME280_temperature;BME280_humidity;BME280_pressure;Samples;Min_cycle;Max_cycle;Signal;HPM_P1;HPM_P2
2023/12/01 00:01:11;;;;;;;890.65;132.90;;;;;;;;;;4810575;29;20036;-85
2023/12/01 00:03:38;;;;;;;895.38;133.10;;;;;;;;;;4807274;29;20207;-85
2023/12/01 00:06:05;;;;;;;936.88;135.90;;;;;;;;;;4806056;29;20158;-85
2023/12/01 00:08:31;;;;;;;896.03;133.93;;;;;;;;;;4809757;29;20043;-85
2023/12/01 00:10:58;;;;;;;971.38;140.90;;;;;;;;;;4808014;29;20067;-85
2023/12/01 00:13:25;;;;;;;895.33;131.10;;;;;;;;;;4808839;29;20055;-86
2023/12/01 00:15:52;;;;;;;897.38;132.43;;;;;;;;;;4808773;29;20048;-85
2023/12/01 00:18:19;;;;;;;954.05;144.35;;;;;;;;;;4804484;29;20048;-85
2023/12/01 00:20:46;;;;;;;947.13;148.80;;;;;;;;;;4807336;29;21071;-86
2023/12/01 00:23:12;;;;;;;967.10;156.52;;;;;;;;;;4806688;29;20060;-85
2023/12/01 00:25:39;;;;;;;915.28;143.63;;;;;;;;;;4807627;29;20046;-85
2023/12/01 00:28:06;;;;;;;919.83;146.52;;;;;;;;;;4810682;29;20047;-85
2023/12/01 00:30:33;;;;;;;922.92;142.73;;;;;;;;;;4810692;29;20044;-85
2023/12/01 00:33:01;;;;;;;922.10;138.35;;;;;;;;;;4807044;29;20885;-85
2023/12/01 00:35:29;;;;;;;913.60;136.35;;;;;;;;;;4807875;29;20051;-85
2023/12/01 00:37:56;;;;;;;964.90;143.25;;;;;;;;;;4801540;29;20047;-85
2023/12/01 00:40:22;;;;;;;917.47;136.25;;;;;;;;;;4805418;29;20032;-85
2023/12/01 00:42:50;;;;;;;951.65;144.60;;;;;;;;;;4811293;29;20836;-85
2023/12/01 00:45:17;;;;;;;902.50;137.23;;;;;;;;;;4810093;29;20039;-85
2023/12/01 00:47:44;;;;;;;930.75;139.82;;;;;;;;;;4807121;29;21014;-85
2023/12/01 00:50:11;;;;;;;944.88;137.77;;;;;;;;;;4805312;29;20546;-85
2023/12/01 00:52:37;;;;;;;909.97;138.00;;;;;;;;;;4807489;29;20147;-84
2023/12/01 00:55:04;;;;;;;903.90;134.63;;;;;;;;;;4811130;29;20044;-85
2023/12/01 00:57:31;;;;;;;930.42;137.25;;;;;;;;;;4803989;29;20063;-85
2023/12/01 00:59:58;;;;;;;903.40;134.52;;;;;;;;;;4814566;29;20051;-85
2023/12/01 01:02:25;;;;;;;911.15;136.60;;;;;;;;;;4813264;29;20957;-84
2023/12/01 01:04:51;;;;;;;1007.78;150.70;;;;;;;;;;4809026;29;20040;-84
2023/12/01 01:07:18;;;;;;;929.60;142.95;;;;;;;;;;4807120;29;20040;-84
2023/12/01 01:09:45;;;;;;;956.60;143.02;;;;;;;;;;4801989;29;20054;-84
2023/12/01 01:12:12;;;;;;;956.00;143.18;;;;;;;;;;4802598;29;20036;-85
2023/12/01 01:14:39;;;;;;;927.75;142.02;;;;;;;;;;4813663;29;21011;-84
2023/12/01 01:17:05;;;;;;;980.60;147.38;;;;;;;;;;4813209;29;20166;-85
2023/12/01 01:19:32;;;;;;;928.38;142.90;;;;;;;;;;4811606;29;20052;-85
2023/12/01 01:21:59;;;;;;;919.88;139.77;;;;;;;;;;4806883;29;20045;-85
2023/12/01 01:24:25;;;;;;;941.45;142.88;;;;;;;;;;4804122;29;20051;-84
2023/12/01 01:26:52;;;;;;;922.72;137.15;;;;;;;;;;4806907;29;20146;-85
2023/12/01 01:29:18;;;;;;;926.75;139.77;;;;;;;;;;4812976;29;20154;-85
2023/12/01 01:31:45;;;;;;;925.65;136.18;;;;;;;;;;4803173;29;20869;-85
2023/12/01 01:34:12;;;;;;;916.15;135.20;;;;;;;;;;4803492;29;21273;-84
2023/12/01 01:36:38;;;;;;;926.00;139.52;;;;;;;;;;4805214;29;20044;-85
2023/12/01 01:39:05;;;;;;;930.95;139.68;;;;;;;;;;4813617;29;20159;-84
2023/12/01 01:41:32;;;;;;;950.45;141.40;;;;;;;;;;4810878;29;20122;-84
2023/12/01 01:43:58;;;;;;;1011.10;147.57;;;;;;;;;;4806652;29;20040;-85
2023/12/01 01:46:25;;;;;;;945.60;143.57;;;;;;;;;;4818066;29;21270;-86
2023/12/01 01:48:52;;;;;;;933.30;137.70;;;;;;;;;;4810491;29;20052;-86
2023/12/01 01:51:19;;;;;;;908.38;134.13;;;;;;;;;;4811858;29;20032;-86
2023/12/01 01:53:45;;;;;;;946.15;138.70;;;;;;;;;;4812150;29;21117;-86
2023/12/01 01:56:12;;;;;;;900.15;134.18;;;;;;;;;;4816860;29;20158;-86
2023/12/01 01:58:42;;;;;;;889.60;130.13;;;;;;;;;;4817453;29;20265;-86
2023/12/01 02:01:09;;;;;;;1782.82;254.55;;;;;;;;;;4990125;23;21187;-87
2023/12/01 02:03:37;;;;;;;848.58;125.75;;;;;;;;;;4802672;29;20819;-89
2023/12/01 02:06:07;;;;;;;822.30;122.28;;;;;;;;;;4811622;29;20049;-89
2023/12/01 02:08:35;;;;;;;837.08;120.65;;;;;;;;;;4808390;29;20423;-89
2023/12/01 02:11:02;;;;;;;883.05;127.93;;;;;;;;;;4808158;29;20052;-89
2023/12/01 02:13:29;;;;;;;795.17;117.13;;;;;;;;;;4812461;29;20060;-88
2023/12/01 02:15:55;;;;;;;799.72;115.32;;;;;;;;;;4812383;29;20040;-89
2023/12/01 02:18:26;;;;;;;818.03;119.78;;;;;;;;;;4810499;29;21044;-90
2023/12/01 02:20:54;;;;;;;795.00;116.20;;;;;;;;;;4821645;29;20040;-89
2023/12/01 02:23:21;;;;;;;773.28;112.38;;;;;;;;;;4815757;29;21147;-88
2023/12/01 02:25:48;;;;;;;799.85;116.57;;;;;;;;;;4796380;29;20060;-89
2023/12/01 02:28:16;;;;;;;846.38;119.55;;;;;;;;;;4814448;29;20040;-89
2023/12/01 02:30:49;;;;;;;770.75;111.38;;;;;;;;;;4811514;29;20847;-89
2023/12/01 02:33:16;;;;;;;798.57;114.17;;;;;;;;;;4816759;29;20044;-89
2023/12/01 02:35:44;;;;;;;772.72;110.65;;;;;;;;;;4833092;29;20325;-88
2023/12/01 02:38:10;;;;;;;802.33;112.97;;;;;;;;;;4814035;29;20151;-90
2023/12/01 02:40:42;;;;;;;785.10;111.78;;;;;;;;;;4824720;29;21047;-88
2023/12/01 02:43:11;;;;;;;781.25;110.32;;;;;;;;;;4809115;29;20045;-88
2023/12/01 02:45:38;;;;;;;794.30;112.85;;;;;;;;;;4811992;29;20068;-88
2023/12/01 02:48:05;;;;;;;808.47;115.95;;;;;;;;;;4810588;29;20148;-89
2023/12/01 02:50:33;;;;;;;789.83;109.32;;;;;;;;;;4830085;29;20032;-88
2023/12/01 02:53:00;;;;;;;854.35;118.05;;;;;;;;;;4829506;29;20137;-88
2023/12/01 02:55:27;;;;;;;790.85;112.45;;;;;;;;;;4814292;29;20055;-88
2023/12/01 02:57:54;;;;;;;783.50;112.53;;;;;;;;;;4811452;29;20124;-89
2023/12/01 03:00:22;;;;;;;827.67;116.60;;;;;;;;;;4811025;29;20478;-88
2023/12/01 03:02:52;;;;;;;814.03;114.57;;;;;;;;;;4811892;29;20967;-88
2023/12/01 03:05:19;;;;;;;795.78;111.15;;;;;;;;;;4812565;29;20603;-88
2023/12/01 03:07:47;;;;;;;791.55;111.75;;;;;;;;;;4809913;29;20053;-88
2023/12/01 03:10:14;;;;;;;876.53;123.05;;;;;;;;;;4815974;29;20140;-88
2023/12/01 03:12:41;;;;;;;826.72;116.25;;;;;;;;;;4820742;29;21089;-89
2023/12/01 03:15:12;;;;;;;853.75;119.18;;;;;;;;;;4806214;29;20045;-88
2023/12/01 03:17:39;;;;;;;842.65;118.85;;;;;;;;;;4808885;29;20044;-88
2023/12/01 03:20:10;;;;;;;899.95;126.88;;;;;;;;;;4815808;29;20052;-88
2023/12/01 03:22:39;;;;;;;799.13;116.13;;;;;;;;;;4817505;29;20048;-89
2023/12/01 03:25:12;;;;;;;818.72;113.45;;;;;;;;;;4817351;29;20044;-88
2023/12/01 03:27:43;;;;;;;852.90;120.82;;;;;;;;;;4805097;29;20048;-88
2023/12/01 03:30:15;;;;;;;820.75;116.90;;;;;;;;;;4813701;29;20120;-88
2023/12/01 03:32:44;;;;;;;830.75;117.75;;;;;;;;;;4808030;29;20986;-88
2023/12/01 03:35:12;;;;;;;857.35;121.63;;;;;;;;;;4806735;29;20155;-88
2023/12/01 03:37:38;;;;;;;860.15;119.63;;;;;;;;;;4816477;29;20952;-88
2023/12/01 03:40:24;;;;;;;863.88;125.10;;;;;;;;;;4810061;29;20909;-88
2023/12/01 03:42:51;;;;;;;894.45;122.93;;;;;;;;;;4807176;29;20072;-87
2023/12/01 03:45:19;;;;;;;845.47;121.57;;;;;;;;;;4805725;29;20055;-88
2023/12/01 03:47:46;;;;;;;837.40;117.68;;;;;;;;;;4796666;29;20881;-88
2023/12/01 03:50:13;;;;;;;859.35;119.93;;;;;;;;;;4806670;29;20062;-88
2023/12/01 03:52:44;;;;;;;822.30;114.85;;;;;;;;;;4806001;29;20048;-89
2023/12/01 03:55:11;;;;;;;842.78;115.78;;;;;;;;;;4813356;29;20120;-88
2023/12/01 03:57:39;;;;;;;853.58;118.13;;;;;;;;;;4811612;29;20208;-88
2023/12/01 04:00:16;;;;;;;873.50;122.40;;;;;;;;;;4824746;29;20963;-89
2023/12/01 04:02:46;;;;;;;840.20;116.25;;;;;;;;;;4807448;29;20044;-88
2023/12/01 04:05:21;;;;;;;849.08;118.85;;;;;;;;;;4815271;29;20953;-89
2023/12/01 04:07:50;;;;;;;844.88;117.15;;;;;;;;;;4812348;29;20048;-88
2023/12/01 04:10:21;;;;;;;846.08;119.65;;;;;;;;;;4804359;29;20052;-88
2023/12/01 04:12:47;;;;;;;869.35;125.10;;;;;;;;;;4794748;29;20044;-88
2023/12/01 04:15:16;;;;;;;939.38;126.82;;;;;;;;;;4813955;29;20851;-88
2023/12/01 04:17:43;;;;;;;975.50;126.85;;;;;;;;;;4806183;29;20075;-88
2023/12/01 04:20:29;;;;;;;964.28;127.25;;;;;;;;;;4807349;29;20040;-87
2023/12/01 04:22:56;;;;;;;936.78;119.75;;;;;;;;;;4824911;29;20067;-88
2023/12/01 04:25:23;;;;;;;935.97;114.03;;;;;;;;;;4804486;29;20045;-89
2023/12/01 04:27:51;;;;;;;936.55;116.60;;;;;;;;;;4808562;29;21238;-89
2023/12/01 04:30:17;;;;;;;926.03;116.50;;;;;;;;;;4816665;29;20738;-88
2023/12/01 04:32:48;;;;;;;894.00;112.88;;;;;;;;;;4807452;29;21140;-88
2023/12/01 04:35:15;;;;;;;905.83;113.75;;;;;;;;;;4810592;29;20056;-88
2023/12/01 04:37:42;;;;;;;907.38;113.38;;;;;;;;;;4808646;29;21045;-88
2023/12/01 04:40:15;;;;;;;850.97;109.85;;;;;;;;;;4806907;29;20124;-88
2023/12/01 04:42:46;;;;;;;868.58;108.63;;;;;;;;;;4809180;29;20044;-88
2023/12/01 04:45:13;;;;;;;826.25;106.55;;;;;;;;;;4810937;29;21265;-88
2023/12/01 04:47:43;;;;;;;860.00;112.80;;;;;;;;;;4808856;29;21026;-88
2023/12/01 04:50:14;;;;;;;871.75;112.82;;;;;;;;;;4807733;29;20067;-88
2023/12/01 04:52:41;;;;;;;734.20;97.40;;;;;;;;;;4802156;29;20554;-89
2023/12/01 04:55:12;;;;;;;887.45;120.05;;;;;;;;;;4804350;29;20107;-89
2023/12/01 04:57:39;;;;;;;883.90;117.50;;;;;;;;;;4806666;29;20863;-89
2023/12/01 05:00:19;;;;;;;915.35;120.95;;;;;;;;;;4825751;29;20095;-88
2023/12/01 05:02:51;;;;;;;880.92;119.63;;;;;;;;;;4807390;29;20048;-88
2023/12/01 05:05:22;;;;;;;857.28;115.40;;;;;;;;;;4806277;29;20088;-89
2023/12/01 05:07:50;;;;;;;848.40;116.53;;;;;;;;;;4808346;29;20060;-89
2023/12/01 05:10:17;;;;;;;881.28;118.50;;;;;;;;;;4808470;29;20103;-89
2023/12/01 05:12:44;;;;;;;847.03;105.28;;;;;;;;;;4815180;29;21059;-88
2023/12/01 05:15:18;;;;;;;878.78;115.38;;;;;;;;;;4816360;29;20973;-88
2023/12/01 05:17:50;;;;;;;849.80;116.22;;;;;;;;;;4811057;29;20110;-88
2023/12/01 05:20:17;;;;;;;904.25;118.25;;;;;;;;;;4808683;29;20055;-88
2023/12/01 05:22:50;;;;;;;829.28;113.22;;;;;;;;;;4814276;29;20040;-88
2023/12/01 05:25:18;;;;;;;858.92;114.43;;;;;;;;;;4810779;29;20052;-89
2023/12/01 05:27:49;;;;;;;855.08;113.40;;;;;;;;;;4816180;29;20112;-88
2023/12/01 05:30:17;;;;;;;934.42;124.97;;;;;;;;;;4809636;29;20824;-88
2023/12/01 05:32:44;;;;;;;821.92;109.88;;;;;;;;;;4810254;29;20067;-88
2023/12/01 05:35:12;;;;;;;846.35;110.95;;;;;;;;;;4817441;29;20048;-86
2023/12/01 05:37:48;;;;;;;869.42;113.18;;;;;;;;;;4809436;29;20045;-88
2023/12/01 05:40:21;;;;;;;813.97;109.55;;;;;;;;;;4818374;29;20055;-88
2023/12/01 05:42:49;;;;;;;786.65;103.45;;;;;;;;;;4818825;29;20104;-88
2023/12/01 05:45:17;;;;;;;791.65;107.93;;;;;;;;;;4815983;29;20037;-88
2023/12/01 05:47:45;;;;;;;846.75;111.88;;;;;;;;;;4813367;29;20048;-88
2023/12/01 05:50:13;;;;;;;934.10;119.43;;;;;;;;;;4807989;29;20048;-88
2023/12/01 05:52:43;;;;;;;871.85;119.43;;;;;;;;;;4811158;29;20048;-88
2023/12/01 05:55:14;;;;;;;834.67;113.28;;;;;;;;;;4807817;29;20040;-89
2023/12/01 05:57:47;;;;;;;804.80;108.88;;;;;;;;;;4808342;29;20052;-88
2023/12/01 06:00:15;;;;;;;894.28;120.40;;;;;;;;;;4804764;29;20059;-88
2023/12/01 06:02:45;;;;;;;837.55;107.85;;;;;;;;;;4808721;29;20771;-89
2023/12/01 06:05:15;;;;;;;885.92;113.00;;;;;;;;;;4806887;29;20055;-87
2023/12/01 06:07:43;;;;;;;803.55;103.68;;;;;;;;;;4808187;29;20041;-87
2023/12/01 06:10:13;;;;;;;869.00;110.18;;;;;;;;;;4803671;29;20211;-88
2023/12/01 06:12:40;;;;;;;755.17;96.90;;;;;;;;;;4811248;29;20044;-88
2023/12/01 06:15:07;;;;;;;798.40;96.50;;;;;;;;;;4809327;29;20802;-89
2023/12/01 06:17:34;;;;;;;813.60;99.40;;;;;;;;;;4815010;29;20131;-87
2023/12/01 06:20:01;;;;;;;765.72;95.43;;;;;;;;;;4815811;29;20113;-88
2023/12/01 06:22:28;;;;;;;737.67;93.75;;;;;;;;;;4820467;29;20885;-88
2023/12/01 06:24:55;;;;;;;759.25;97.07;;;;;;;;;;4817022;29;20060;-88
2023/12/01 06:27:22;;;;;;;767.10;96.65;;;;;;;;;;4814560;29;20091;-88
2023/12/01 06:29:51;;;;;;;815.65;104.13;;;;;;;;;;4801450;29;20044;-88
2023/12/01 06:32:17;;;;;;;855.80;104.10;;;;;;;;;;4808384;29;20866;-88
2023/12/01 06:34:44;;;;;;;812.28;102.90;;;;;;;;;;4803061;29;20045;-88
2023/12/01 06:37:11;;;;;;;829.20;104.38;;;;;;;;;;4808396;29;20936;-88
2023/12/01 06:39:37;;;;;;;885.22;110.65;;;;;;;;;;4818937;29;20037;-88
2023/12/01 06:42:04;;;;;;;858.38;103.00;;;;;;;;;;4806856;29;20151;-87
2023/12/01 06:44:34;;;;;;;791.83;93.80;;;;;;;;;;4807825;29;20040;-87
2023/12/01 06:47:01;;;;;;;853.45;101.72;;;;;;;;;;4817438;29;20215;-88
2023/12/01 06:49:28;;;;;;;830.10;101.55;;;;;;;;;;4802988;29;20144;-88
2023/12/01 06:51:54;;;;;;;834.97;105.32;;;;;;;;;;4803107;29;20045;-88
2023/12/01 06:54:21;;;;;;;920.05;115.22;;;;;;;;;;4794127;29;20055;-88
2023/12/01 06:56:48;;;;;;;979.33;123.20;;;;;;;;;;4794317;29;20048;-88
2023/12/01 06:59:14;;;;;;;862.15;106.75;;;;;;;;;;4812339;29;21013;-88
2023/12/01 07:01:41;;;;;;;980.78;120.75;;;;;;;;;;4809318;29;21090;-88
2023/12/01 07:04:08;;;;;;;1119.32;139.45;;;;;;;;;;4797076;29;20051;-87
2023/12/01 07:06:35;;;;;;;858.13;104.95;;;;;;;;;;4806553;29;20040;-88
2023/12/01 07:09:03;;;;;;;913.90;116.93;;;;;;;;;;4799706;29;20650;-88
2023/12/01 07:11:30;;;;;;;915.90;117.63;;;;;;;;;;4799963;29;21149;-87
2023/12/01 07:13:56;;;;;;;1015.30;129.75;;;;;;;;;;4795297;29;20044;-88
2023/12/01 07:16:23;;;;;;;1199.43;148.52;;;;;;;;;;4779124;29;20057;-88
2023/12/01 07:18:51;;;;;;;901.97;118.60;;;;;;;;;;4787068;29;20532;-89
2023/12/01 07:21:18;;;;;;;1208.07;145.65;;;;;;;;;;4787864;29;20040;-88
2023/12/01 07:23:47;;;;;;;933.22;110.97;;;;;;;;;;4783024;29;20525;-88
2023/12/01 07:26:13;;;;;;;884.05;108.65;;;;;;;;;;4803129;29;21247;-88
2023/12/01 07:28:41;;;;;;;807.90;101.03;;;;;;;;;;4823710;29;20132;-88
2023/12/01 07:31:08;;;;;;;826.30;98.70;;;;;;;;;;4804374;29;20911;-88
2023/12/01 07:33:34;;;;;;;874.17;106.13;;;;;;;;;;4801832;29;21267;-88
2023/12/01 07:36:01;;;;;;;807.08;95.10;;;;;;;;;;4804607;29;20047;-88
2023/12/01 07:38:28;;;;;;;816.53;102.90;;;;;;;;;;4812350;29;20119;-88
2023/12/01 07:40:54;;;;;;;815.92;98.18;;;;;;;;;;4808402;29;20053;-88
2023/12/01 07:43:22;;;;;;;757.38;91.30;;;;;;;;;;4812165;29;20048;-93
2023/12/01 07:45:48;;;;;;;817.28;100.25;;;;;;;;;;4818358;29;20055;-88
2023/12/01 07:48:15;;;;;;;822.92;97.20;;;;;;;;;;4811684;29;20048;-88
2023/12/01 07:50:44;;;;;;;791.58;86.88;;;;;;;;;;4806435;29;20047;-88
2023/12/01 07:53:12;;;;;;;858.60;96.70;;;;;;;;;;4807605;29;20044;-88
2023/12/01 07:55:40;;;;;;;822.10;94.28;;;;;;;;;;4813139;29;20044;-87
2023/12/01 07:58:09;;;;;;;937.20;107.40;;;;;;;;;;4804090;29;20247;-88
2023/12/01 08:00:40;;;;;;;797.95;95.60;;;;;;;;;;4803134;29;20983;-88
2023/12/01 08:03:08;;;;;;;814.65;91.15;;;;;;;;;;4802611;29;20048;-87
2023/12/01 08:05:36;;;;;;;832.10;98.03;;;;;;;;;;4803343;29;21070;-87
2023/12/01 08:08:03;;;;;;;856.35;101.05;;;;;;;;;;4806050;29;20059;-88
2023/12/01 08:10:29;;;;;;;785.22;92.75;;;;;;;;;;4803313;29;20521;-88
2023/12/01 08:12:59;;;;;;;861.47;100.07;;;;;;;;;;4811162;29;20052;-89
2023/12/01 08:15:26;;;;;;;794.58;91.68;;;;;;;;;;4807144;29;20048;-89
2023/12/01 08:17:56;;;;;;;752.90;85.97;;;;;;;;;;4808458;29;20122;-89
2023/12/01 08:20:28;;;;;;;739.28;86.25;;;;;;;;;;4813213;29;20048;-90
2023/12/01 08:22:57;;;;;;;845.25;94.82;;;;;;;;;;4819092;29;20052;-87
2023/12/01 08:25:24;;;;;;;523.47;61.92;;;;;;;;;;4807552;29;20351;-91
2023/12/01 08:27:52;;;;;;;756.22;87.15;;;;;;;;;;4803395;29;20041;-89
2023/12/01 08:30:19;;;;;;;788.47;91.35;;;;;;;;;;4815110;29;20769;-90
2023/12/01 08:32:47;;;;;;;813.13;95.28;;;;;;;;;;4800862;29;20145;-90
2023/12/01 08:35:17;;;;;;;811.08;94.32;;;;;;;;;;4807427;29;20055;-89
2023/12/01 08:37:44;;;;;;;886.55;102.90;;;;;;;;;;4808744;29;20054;-89
2023/12/01 08:40:11;;;;;;;706.60;83.63;;;;;;;;;;4815734;29;20040;-89
2023/12/01 08:42:41;;;;;;;784.72;90.82;;;;;;;;;;4809934;29;20103;-88
2023/12/01 08:45:08;;;;;;;821.33;95.70;;;;;;;;;;4798504;29;20041;-87
2023/12/01 08:47:35;;;;;;;930.72;108.70;;;;;;;;;;4804832;29;20052;-90
2023/12/01 08:50:02;;;;;;;684.83;80.35;;;;;;;;;;4828893;29;20044;-91
2023/12/01 08:52:35;;;;;;;546.05;65.80;;;;;;;;;;4833329;29;20044;-92
2023/12/01 08:55:02;;;;;;;821.20;95.00;;;;;;;;;;4832061;29;20454;-91
2023/12/01 08:57:31;;;;;;;224.82;37.55;;;;;;;;;;4842035;29;20512;-90
2023/12/01 08:59:58;;;;;;;153.63;34.50;;;;;;;;;;4857542;29;20037;-93
2023/12/01 09:02:25;;;;;;;742.97;88.68;;;;;;;;;;4831693;29;20048;-92
2023/12/01 09:04:51;;;;;;;821.72;96.53;;;;;;;;;;4827363;29;20040;-90
2023/12/01 09:07:24;;;;;;;747.00;87.38;;;;;;;;;;4813609;29;20067;-90
2023/12/01 09:10:51;;;;;;;702.13;81.82;;;;;;;;;;4807760;29;20071;-92
2023/12/01 09:14:21;;;;;;;751.75;84.18;;;;;;;;;;4770576;29;20064;-91
2023/12/01 09:17:16;;;;;;;743.22;86.32;;;;;;;;;;4746862;29;20057;-89
2023/12/01 09:20:15;;;;;;;1326.63;154.77;;;;;;;;;;4749277;29;20053;-90
2023/12/01 09:23:50;;;;;;;;;;;;;;;;;;;;;
2023/12/01 09:26:30;;;;;;;877.13;95.20;;;;;;;;;;4756023;29;20103;-90
2023/12/01 09:29:20;;;;;;;;;;;;;;;;;;;;;
2023/12/01 09:32:45;;;;;;;838.70;94.93;;;;;;;;;;4779592;29;20104;-90
2023/12/01 09:35:39;;;;;;;991.60;111.32;;;;;;;;;;4780866;29;20056;-90
2023/12/01 09:38:37;;;;;;;82.07;24.55;;;;;;;;;;4798012;29;20425;-92
2023/12/01 09:41:07;;;;;;;344.80;44.28;;;;;;;;;;4874545;29;21022;-93
2023/12/01 09:43:35;;;;;;;316.75;44.45;;;;;;;;;;4889585;29;20041;-92
2023/12/01 09:46:02;;;;;;;211.82;35.58;;;;;;;;;;4875169;29;20097;-95
2023/12/01 09:48:34;;;;;;;500.10;59.35;;;;;;;;;;4864887;29;20036;-95
2023/12/01 09:51:02;;;;;;;729.08;82.93;;;;;;;;;;4830255;29;20048;-90
2023/12/01 09:53:30;;;;;;;738.47;82.28;;;;;;;;;;4814577;29;20047;-90
2023/12/01 09:55:57;;;;;;;724.60;80.93;;;;;;;;;;4817367;29;20873;-90
2023/12/01 09:58:25;;;;;;;749.45;85.53;;;;;;;;;;4816875;29;20163;-89
2023/12/01 10:00:52;;;;;;;738.17;84.65;;;;;;;;;;4830252;29;20535;-89
2023/12/01 10:03:18;;;;;;;716.42;87.18;;;;;;;;;;4824314;29;20151;-90
2023/12/01 10:05:45;;;;;;;720.40;82.03;;;;;;;;;;4821849;29;21141;-90
2023/12/01 10:08:12;;;;;;;818.10;99.65;;;;;;;;;;4817518;29;20044;-89
2023/12/01 10:10:39;;;;;;;726.72;85.78;;;;;;;;;;4816593;29;20051;-90
2023/12/01 10:13:07;;;;;;;718.03;85.53;;;;;;;;;;4820220;29;20095;-90
2023/12/01 10:15:38;;;;;;;810.70;116.55;;;;;;;;;;4828726;29;20053;-89
2023/12/01 10:18:16;;;;;;;745.20;95.75;;;;;;;;;;4827015;29;20045;-90
2023/12/01 10:20:57;;;;;;;829.88;119.97;;;;;;;;;;4826117;29;20224;-89
2023/12/01 10:23:25;;;;;;;635.83;77.35;;;;;;;;;;4830291;29;20135;-89
2023/12/01 10:25:52;;;;;;;604.33;84.43;;;;;;;;;;4836404;29;20119;-90
2023/12/01 10:28:19;;;;;;;623.90;80.65;;;;;;;;;;4835623;29;20051;-90
2023/12/01 10:30:57;;;;;;;575.22;74.97;;;;;;;;;;4849699;29;21042;-90
2023/12/01 10:33:25;;;;;;;731.63;88.97;;;;;;;;;;4825236;29;20047;-89
2023/12/01 10:36:02;;;;;;;768.13;93.55;;;;;;;;;;4821350;29;20047;-90
2023/12/01 10:38:30;;;;;;;745.67;88.10;;;;;;;;;;4831384;29;20044;-89
2023/12/01 10:40:57;;;;;;;764.25;94.43;;;;;;;;;;4820075;29;21186;-90
2023/12/01 10:43:26;;;;;;;763.17;93.75;;;;;;;;;;4833040;29;20051;-89
2023/12/01 10:45:53;;;;;;;708.05;85.80;;;;;;;;;;4822609;29;20049;-89
2023/12/01 10:48:20;;;;;;;757.83;115.10;;;;;;;;;;4834638;29;20074;-89
2023/12/01 10:50:47;;;;;;;681.85;87.20;;;;;;;;;;4839383;29;20044;-90
2023/12/01 10:53:15;;;;;;;658.72;81.13;;;;;;;;;;4842086;29;20086;-90
2023/12/01 10:55:44;;;;;;;649.15;83.85;;;;;;;;;;4836741;29;20051;-90
2023/12/01 10:58:15;;;;;;;828.15;114.95;;;;;;;;;;4821945;29;20070;-89
2023/12/01 11:00:42;;;;;;;723.55;99.35;;;;;;;;;;4820801;29;21112;-90
2023/12/01 11:03:10;;;;;;;735.35;92.35;;;;;;;;;;4831763;29;21010;-89
2023/12/01 11:05:37;;;;;;;753.90;89.35;;;;;;;;;;4818859;29;20040;-90
2023/12/01 11:08:10;;;;;;;749.63;88.43;;;;;;;;;;4818637;29;21031;-89
2023/12/01 11:10:37;;;;;;;733.30;88.47;;;;;;;;;;4819677;29;20044;-90
2023/12/01 11:13:13;;;;;;;739.75;81.25;;;;;;;;;;4821438;29;20777;-89
2023/12/01 11:15:41;;;;;;;756.00;85.20;;;;;;;;;;4801904;29;20040;-90
2023/12/01 11:18:08;;;;;;;745.67;87.45;;;;;;;;;;4819206;29;20052;-90
2023/12/01 11:20:39;;;;;;;719.85;82.45;;;;;;;;;;4818343;29;20130;-89
2023/12/01 11:23:09;;;;;;;757.15;87.00;;;;;;;;;;4819131;29;20047;-89
2023/12/01 11:25:39;;;;;;;743.50;85.95;;;;;;;;;;4820966;29;20948;-89
2023/12/01 11:28:41;;;;;;;739.72;87.32;;;;;;;;;;4818822;29;20139;-90
2023/12/01 11:31:09;;;;;;;762.25;90.65;;;;;;;;;;4818384;29;20824;-89
2023/12/01 11:33:37;;;;;;;725.20;81.65;;;;;;;;;;4814401;29;20104;-90
2023/12/01 11:36:23;;;;;;;718.60;77.80;;;;;;;;;;4817481;29;20094;-90
2023/12/01 11:39:08;;;;;;;747.65;78.63;;;;;;;;;;4822015;29;20092;-88
2023/12/01 11:41:38;;;;;;;660.40;71.07;;;;;;;;;;4818200;29;20050;-89
2023/12/01 11:44:07;;;;;;;720.20;80.88;;;;;;;;;;4827393;29;20145;-90
2023/12/01 11:46:34;;;;;;;729.63;79.80;;;;;;;;;;4836729;29;20059;-90
2023/12/01 11:49:00;;;;;;;750.78;82.60;;;;;;;;;;4817327;29;20052;-89
2023/12/01 11:51:27;;;;;;;761.03;83.95;;;;;;;;;;4826524;29;20546;-89
2023/12/01 11:53:54;;;;;;;774.97;91.90;;;;;;;;;;4818515;29;20167;-89
2023/12/01 11:56:22;;;;;;;790.85;93.38;;;;;;;;;;4813793;29;20057;-89
2023/12/01 11:58:49;;;;;;;784.67;91.47;;;;;;;;;;4819395;29;21170;-89
2023/12/01 12:01:15;;;;;;;732.70;81.28;;;;;;;;;;4815888;29;20320;-89
2023/12/01 12:03:42;;;;;;;753.03;87.13;;;;;;;;;;4809242;29;20067;-90
2023/12/01 19:17:25;;;;;;;971.88;133.80;;;;;;;;;;6073843;22;1248180;-85
2023/12/01 19:19:52;;;;;;;902.85;126.05;;;;;;;;;;6106853;22;20802;-89
2023/12/01 19:22:18;;;;;;;900.42;125.70;;;;;;;;;;6118391;22;20095;-88
2023/12/01 19:24:45;;;;;;;906.00;127.40;;;;;;;;;;6119363;23;20046;-89
2023/12/01 19:27:12;;;;;;;925.60;125.90;;;;;;;;;;6117848;23;20012;-89
2023/12/01 19:29:38;;;;;;;994.53;134.52;;;;;;;;;;6108312;22;20008;-89
2023/12/01 19:32:05;;;;;;;884.08;121.15;;;;;;;;;;6117016;23;20031;-89
2023/12/01 19:34:32;;;;;;;1005.58;133.00;;;;;;;;;;6121968;22;20019;-89
2023/12/01 19:36:58;;;;;;;893.15;119.82;;;;;;;;;;6118270;23;20017;-88
2023/12/01 19:39:26;;;;;;;845.65;114.38;;;;;;;;;;6121966;23;20120;-88
2023/12/01 19:41:52;;;;;;;1037.10;137.70;;;;;;;;;;6106705;22;20020;-88
2023/12/01 19:44:19;;;;;;;983.88;131.05;;;;;;;;;;6114230;23;20020;-88
2023/12/01 19:46:46;;;;;;;883.13;117.78;;;;;;;;;;6094108;23;21147;-88
2023/12/01 19:49:13;;;;;;;850.40;113.90;;;;;;;;;;6115176;22;20016;-89
2023/12/01 19:51:40;;;;;;;926.95;123.93;;;;;;;;;;6117452;22;21045;-88
2023/12/01 19:54:07;;;;;;;876.80;114.30;;;;;;;;;;6117024;23;20995;-88
2023/12/01 19:56:33;;;;;;;941.85;123.30;;;;;;;;;;6110848;22;21030;-88
2023/12/01 19:59:00;;;;;;;887.55;118.05;;;;;;;;;;6117059;23;20040;-89
2023/12/01 20:01:27;;;;;;;1179.15;152.45;;;;;;;;;;6105144;22;20042;-88
2023/12/01 20:03:54;;;;;;;893.58;122.10;;;;;;;;;;6105042;23;20020;-88
2023/12/01 20:06:20;;;;;;;957.78;131.27;;;;;;;;;;6115474;23;20344;-88
2023/12/01 20:08:47;;;;;;;909.60;124.88;;;;;;;;;;6119768;23;20111;-88
2023/12/01 20:11:14;;;;;;;815.78;116.93;;;;;;;;;;6142320;22;20016;-88
2023/12/01 20:13:41;;;;;;;915.92;125.70;;;;;;;;;;6123513;23;20020;-89
2023/12/01 20:16:08;;;;;;;1153.78;158.30;;;;;;;;;;6103871;22;20367;-87
2023/12/01 20:18:35;;;;;;;994.63;136.80;;;;;;;;;;6129256;22;20012;-87
2023/12/01 20:21:01;;;;;;;1248.75;162.68;;;;;;;;;;6128412;22;20026;-87
2023/12/01 20:23:29;;;;;;;1018.22;134.38;;;;;;;;;;6120732;22;20648;-88
2023/12/01 20:25:55;;;;;;;1002.53;130.00;;;;;;;;;;6097197;22;20026;-87
2023/12/01 20:28:22;;;;;;;916.00;115.72;;;;;;;;;;6123487;22;20046;-88
2023/12/01 20:30:49;;;;;;;967.63;121.80;;;;;;;;;;6131602;22;20023;-87
2023/12/01 20:33:15;;;;;;;889.50;111.03;;;;;;;;;;6131508;22;20066;-87
2023/12/01 20:35:42;;;;;;;916.28;118.97;;;;;;;;;;6113806;22;20780;-87
2023/12/01 20:38:09;;;;;;;1009.55;133.15;;;;;;;;;;6110727;22;20027;-87
2023/12/01 20:40:36;;;;;;;1138.22;141.70;;;;;;;;;;6125658;22;20015;-87
2023/12/01 20:43:03;;;;;;;938.53;117.15;;;;;;;;;;6127110;22;20078;-87
2023/12/01 20:45:29;;;;;;;862.90;105.97;;;;;;;;;;6131758;22;20868;-87
2023/12/01 20:47:57;;;;;;;839.53;101.50;;;;;;;;;;6146664;22;20020;-87
2023/12/01 20:50:24;;;;;;;898.00;109.78;;;;;;;;;;6146979;22;20808;-87
2023/12/01 20:52:50;;;;;;;891.00;108.47;;;;;;;;;;6150139;22;20043;-87
2023/12/01 20:55:19;;;;;;;1125.32;137.10;;;;;;;;;;6143057;22;20208;-87
2023/12/01 20:57:45;;;;;;;847.05;103.93;;;;;;;;;;6145301;22;20042;-87
2023/12/01 21:00:12;;;;;;;901.67;111.68;;;;;;;;;;6142526;22;20016;-87
2023/12/01 21:02:39;;;;;;;955.45;114.57;;;;;;;;;;6143220;22;20020;-87
2023/12/01 21:05:06;;;;;;;960.22;109.53;;;;;;;;;;6126832;22;20082;-87
2023/12/01 21:07:32;;;;;;;1034.18;123.95;;;;;;;;;;6143697;22;20023;-88
2023/12/01 21:09:59;;;;;;;916.95;114.25;;;;;;;;;;6140094;22;20040;-88
2023/12/01 21:12:26;;;;;;;873.42;109.68;;;;;;;;;;6140862;22;20016;-87
2023/12/01 21:14:52;;;;;;;1197.70;147.63;;;;;;;;;;6137147;22;20022;-87
2023/12/01 21:17:20;;;;;;;1029.95;125.72;;;;;;;;;;6130475;22;20023;-87
2023/12/01 21:19:47;;;;;;;933.67;113.55;;;;;;;;;;6140322;22;20031;-87